createdAt,value
2017-09-22T00:00:00.004Z,9.18
2017-09-22T00:02:28.432Z,9.22
2017-09-22T00:04:56.980Z,9.23
2017-09-22T00:07:25.412Z,9.36
2017-09-22T00:09:53.935Z,9.44
2017-09-22T00:12:22.426Z,9.54
2017-09-22T00:14:50.904Z,9.59
2017-09-22T00:17:19.379Z,9.60
2017-09-22T00:19:47.833Z,9.57
2017-09-22T00:22:17.066Z,9.60
2017-09-22T00:24:45.512Z,9.60
2017-09-22T00:27:14.712Z,9.69
2017-09-22T00:29:44.043Z,9.78
2017-09-22T00:32:12.472Z,9.78
2017-09-22T00:34:41.663Z,9.87
2017-09-22T00:37:10.114Z,9.92
2017-09-22T00:39:38.544Z,9.93
2017-09-22T00:42:06.991Z,9.97
2017-09-22T00:44:35.420Z,9.96
2017-09-22T00:47:04.747Z,10.03
2017-09-22T00:49:33.241Z,10.07
2017-09-22T00:52:01.701Z,10.08
2017-09-22T00:54:30.200Z,10.05
2017-09-22T00:56:58.657Z,10.01
2017-09-22T00:59:27.860Z,10.03
2017-09-22T01:01:56.364Z,10.07
2017-09-22T01:04:24.799Z,10.07
2017-09-22T01:06:53.319Z,10.05
2017-09-22T01:09:21.803Z,10.02
2017-09-22T01:11:50.256Z,10.01
2017-09-22T01:14:19.455Z,10.00
2017-09-22T01:16:48.676Z,10.03
2017-09-22T01:19:17.169Z,10.04
2017-09-22T01:21:45.628Z,10.06
2017-09-22T01:24:15.778Z,10.01
2017-09-22T01:26:44.252Z,10.05
2017-09-22T01:29:12.742Z,10.10
2017-09-22T01:31:41.225Z,10.09
2017-09-22T01:34:09.700Z,10.08
2017-09-22T01:36:38.184Z,10.08
2017-09-22T01:39:06.616Z,10.13
2017-09-22T01:41:35.150Z,10.19
2017-09-22T01:44:03.593Z,10.09
2017-09-22T01:46:32.834Z,10.15
2017-09-22T01:49:01.296Z,10.19
2017-09-22T01:51:29.722Z,10.21
2017-09-22T01:53:58.178Z,10.19
2017-09-22T01:56:26.619Z,10.13
2017-09-22T01:58:55.948Z,10.12
2017-09-22T02:01:24.375Z,10.17
2017-09-22T02:03:52.912Z,10.12
2017-09-22T02:06:21.340Z,10.12
2017-09-22T02:08:49.788Z,10.14
2017-09-22T02:11:18.259Z,10.16
2017-09-22T02:13:46.709Z,10.13
2017-09-22T02:16:15.902Z,10.11
2017-09-22T02:18:45.123Z,10.15
2017-09-22T02:21:14.335Z,10.11
2017-09-22T02:23:42.822Z,10.12
2017-09-22T02:26:11.251Z,10.04
2017-09-22T02:28:39.695Z,9.93
2017-09-22T02:31:08.123Z,9.98
2017-09-22T02:33:36.572Z,9.99
2017-09-22T02:36:05.025Z,9.95
2017-09-22T02:38:33.454Z,9.93
2017-09-22T02:41:01.904Z,9.87
2017-09-22T02:43:30.371Z,9.86
2017-09-22T02:45:58.852Z,9.83
2017-09-22T02:48:27.327Z,9.90
2017-09-22T02:50:55.816Z,9.84
2017-09-22T02:53:24.360Z,9.84
2017-09-22T02:55:52.807Z,9.89
2017-09-22T02:58:21.237Z,9.87
2017-09-22T03:00:50.457Z,9.89
2017-09-22T03:03:18.883Z,9.85
2017-09-22T03:05:47.322Z,9.80
2017-09-22T03:08:15.802Z,9.77
2017-09-22T03:10:44.287Z,9.69
2017-09-22T03:13:12.707Z,9.71
2017-09-22T03:15:41.247Z,9.69
2017-09-22T03:18:09.676Z,9.60
2017-09-22T03:20:39.648Z,9.51
2017-09-22T03:23:08.070Z,9.46
2017-09-22T03:25:36.512Z,9.47
2017-09-22T03:28:04.935Z,9.42
2017-09-22T03:30:34.148Z,9.41
2017-09-22T03:33:02.566Z,9.46
2017-09-22T03:35:31.007Z,9.48
2017-09-22T03:38:00.956Z,9.46
2017-09-22T03:40:29.465Z,9.40
2017-09-22T03:42:57.911Z,9.43
2017-09-22T03:45:27.106Z,9.43
2017-09-22T03:47:56.314Z,9.39
2017-09-22T03:50:25.528Z,9.36
2017-09-22T03:52:53.980Z,9.35
2017-09-22T03:55:23.175Z,9.37
2017-09-22T03:57:52.391Z,9.38
2017-09-22T04:00:21.574Z,9.37
2017-09-22T04:02:50.787Z,9.35
2017-09-22T04:05:20.020Z,9.29
2017-09-22T04:07:48.501Z,9.31
2017-09-22T04:10:16.956Z,9.24
2017-09-22T04:12:45.404Z,9.22
2017-09-22T04:15:13.840Z,9.22
2017-09-22T04:17:42.302Z,9.11
2017-09-22T04:20:10.792Z,9.17
2017-09-22T04:22:39.276Z,9.13
2017-09-22T04:25:07.731Z,9.12
2017-09-22T04:27:36.928Z,9.08
2017-09-22T04:30:06.150Z,9.02
2017-09-22T04:32:34.637Z,9.02
2017-09-22T04:35:03.115Z,9.08
2017-09-22T04:37:31.540Z,9.09
2017-09-22T04:40:00.075Z,9.08
2017-09-22T04:42:28.499Z,9.05
2017-09-22T04:44:57.047Z,9.06
2017-09-22T04:47:25.471Z,9.11
2017-09-22T04:49:53.985Z,9.10
2017-09-22T04:52:23.183Z,9.09
2017-09-22T04:54:52.398Z,9.09
2017-09-22T04:57:20.822Z,9.11
2017-09-22T04:59:49.371Z,9.10
2017-09-22T05:02:17.850Z,9.06
2017-09-22T05:04:46.330Z,9.09
2017-09-22T05:07:14.820Z,9.10
2017-09-22T05:09:43.303Z,9.07
2017-09-22T05:12:11.723Z,9.03
2017-09-22T05:14:40.266Z,8.99
2017-09-22T05:17:08.744Z,9.00
2017-09-22T05:19:37.235Z,9.01
2017-09-22T05:22:05.655Z,9.01
2017-09-22T05:24:34.107Z,8.97
2017-09-22T05:27:02.532Z,8.96
2017-09-22T05:29:30.975Z,9.01
2017-09-22T05:31:59.406Z,8.99
2017-09-22T05:34:28.596Z,9.03
2017-09-22T05:36:57.115Z,9.03
2017-09-22T05:39:25.535Z,9.12
2017-09-22T05:41:53.975Z,9.15
2017-09-22T05:44:22.400Z,9.13
2017-09-22T05:46:50.835Z,9.16
2017-09-22T05:49:19.332Z,9.17
2017-09-22T05:51:47.820Z,9.16
2017-09-22T05:54:16.287Z,9.29
2017-09-22T05:56:44.731Z,9.38
2017-09-22T05:59:13.243Z,9.44
2017-09-22T06:01:41.728Z,9.48
2017-09-22T06:04:10.151Z,9.55
2017-09-22T06:06:38.596Z,9.60
2017-09-22T06:09:07.019Z,9.64
2017-09-22T06:11:35.465Z,9.69
2017-09-22T06:14:03.893Z,9.58
2017-09-22T06:16:32.339Z,9.49
2017-09-22T06:19:00.794Z,9.58
2017-09-22T06:21:29.250Z,9.66
2017-09-22T06:23:58.479Z,9.57
2017-09-22T06:26:26.904Z,9.63
2017-09-22T06:28:55.449Z,9.70
2017-09-22T06:31:23.871Z,9.83
2017-09-22T06:33:52.388Z,9.98
2017-09-22T06:36:21.579Z,10.06
2017-09-22T06:38:50.874Z,10.12
2017-09-22T06:41:20.075Z,10.18
2017-09-22T06:43:49.410Z,10.26
2017-09-22T06:46:17.835Z,10.30
2017-09-22T06:48:46.370Z,10.39
2017-09-22T06:51:14.855Z,10.47
2017-09-22T06:53:43.302Z,10.55
2017-09-22T06:56:12.551Z,10.62
2017-09-22T06:58:40.989Z,10.69
2017-09-22T07:01:10.205Z,10.72
2017-09-22T07:03:38.650Z,10.82
2017-09-22T07:06:07.178Z,11.05
2017-09-22T07:08:35.679Z,11.13
2017-09-22T07:11:04.225Z,11.18
2017-09-22T07:13:33.547Z,11.27
2017-09-22T07:16:01.971Z,11.42
2017-09-22T07:18:30.420Z,11.54
2017-09-22T07:20:58.890Z,11.69
2017-09-22T07:23:27.919Z,11.82
2017-09-22T07:25:56.367Z,11.88
2017-09-22T07:28:24.851Z,11.99
2017-09-22T07:30:53.299Z,12.11
2017-09-22T07:33:22.495Z,12.25
2017-09-22T07:35:51.731Z,12.40
2017-09-22T07:38:20.161Z,12.44
2017-09-22T07:40:50.227Z,12.57
2017-09-22T07:43:18.702Z,12.63
2017-09-22T07:45:47.192Z,12.56
2017-09-22T07:48:15.675Z,12.74
2017-09-22T07:50:44.156Z,12.80
2017-09-22T07:53:12.590Z,12.96
2017-09-22T07:55:41.043Z,12.99
2017-09-22T07:58:09.464Z,13.06
2017-09-22T08:00:37.974Z,13.19
2017-09-22T08:03:06.400Z,13.25
2017-09-22T08:05:34.838Z,13.35
2017-09-22T08:08:03.300Z,13.48
2017-09-22T08:10:32.514Z,13.58
2017-09-22T08:13:01.699Z,13.64
2017-09-22T08:15:31.023Z,13.84
2017-09-22T08:17:59.443Z,14.09
2017-09-22T08:20:27.883Z,14.09
2017-09-22T08:22:56.316Z,14.13
2017-09-22T08:25:24.749Z,14.32
2017-09-22T08:27:53.198Z,14.78
2017-09-22T08:30:22.395Z,14.54
2017-09-22T08:32:51.611Z,14.53
2017-09-22T08:35:20.799Z,14.24
2017-09-22T08:37:50.020Z,14.32
2017-09-22T08:40:18.446Z,14.37
2017-09-22T08:42:46.895Z,14.66
2017-09-22T08:45:15.315Z,15.05
2017-09-22T08:47:43.805Z,14.95
2017-09-22T08:50:12.331Z,14.70
2017-09-22T08:52:40.771Z,14.57
2017-09-22T08:55:09.199Z,14.60
2017-09-22T08:57:37.675Z,14.49
2017-09-22T09:00:06.104Z,14.93
2017-09-22T09:02:34.556Z,15.06
2017-09-22T09:05:02.983Z,15.43
2017-09-22T09:07:31.499Z,15.39
2017-09-22T09:09:59.925Z,15.20
2017-09-22T09:12:28.372Z,15.43
2017-09-22T09:14:56.842Z,15.71
2017-09-22T09:17:25.311Z,15.69
2017-09-22T09:19:54.495Z,16.12
2017-09-22T09:22:23.691Z,15.87
2017-09-22T09:24:52.918Z,15.57
2017-09-22T09:27:21.425Z,15.74
2017-09-22T09:29:49.867Z,15.96
2017-09-22T09:32:19.055Z,16.26
2017-09-22T09:34:48.284Z,16.54
2017-09-22T09:37:16.779Z,16.33
2017-09-22T09:39:45.231Z,15.98
2017-09-22T09:42:14.452Z,15.83
2017-09-22T09:44:42.892Z,15.86
2017-09-22T09:47:11.407Z,15.87
2017-09-22T09:49:39.898Z,15.97
2017-09-22T09:52:08.374Z,16.19
2017-09-22T09:54:36.815Z,16.58
2017-09-22T09:57:05.338Z,16.79
2017-09-22T09:59:33.795Z,16.39
2017-09-22T10:02:02.983Z,16.18
2017-09-22T10:04:31.435Z,16.24
2017-09-22T10:06:59.866Z,16.43
2017-09-22T10:09:29.178Z,16.45
2017-09-22T10:11:57.598Z,16.50
2017-09-22T10:14:26.043Z,16.59
2017-09-22T10:16:54.523Z,16.79
2017-09-22T10:19:22.972Z,16.45
2017-09-22T10:21:51.413Z,16.29
2017-09-22T10:24:19.836Z,16.23
2017-09-22T10:26:54.507Z,16.44
2017-09-22T10:29:22.950Z,16.76
2017-09-22T10:31:52.166Z,17.02
2017-09-22T10:34:21.476Z,16.94
2017-09-22T10:36:49.923Z,16.99
2017-09-22T10:39:18.343Z,16.81
2017-09-22T10:41:46.782Z,16.91
2017-09-22T10:44:15.203Z,17.10
2017-09-22T10:46:43.704Z,17.02
2017-09-22T10:49:12.163Z,17.12
2017-09-22T10:51:40.656Z,17.23
2017-09-22T10:54:09.084Z,16.84
2017-09-22T10:56:37.615Z,16.79
2017-09-22T10:59:06.094Z,16.76
2017-09-22T11:01:34.539Z,16.92
2017-09-22T11:04:02.959Z,16.92
2017-09-22T11:06:31.403Z,17.01
2017-09-22T11:08:59.923Z,16.93
2017-09-22T11:11:28.381Z,16.80
2017-09-22T11:13:57.587Z,16.75
2017-09-22T11:16:26.795Z,16.92
2017-09-22T11:18:55.215Z,16.98
2017-09-22T11:21:23.681Z,17.40
2017-09-22T11:23:52.104Z,17.36
2017-09-22T11:26:20.554Z,17.42
2017-09-22T11:28:49.025Z,17.47
2017-09-22T11:31:16.688Z,17.45
2017-09-22T11:33:44.484Z,17.46
2017-09-22T11:36:13.015Z,17.60
2017-09-22T11:38:41.459Z,17.71
2017-09-22T11:41:09.880Z,17.81
2017-09-22T11:43:38.358Z,17.72
2017-09-22T11:46:06.838Z,17.64
2017-09-22T11:48:36.164Z,17.48
2017-09-22T11:51:04.627Z,17.42
2017-09-22T11:53:33.067Z,17.45
2017-09-22T11:56:01.491Z,17.59
2017-09-22T11:58:29.932Z,17.20
2017-09-22T12:00:58.451Z,17.20
2017-09-22T12:03:26.899Z,17.31
2017-09-22T12:05:56.153Z,17.53
2017-09-22T12:08:24.599Z,17.71
2017-09-22T12:10:53.782Z,17.71
2017-09-22T12:13:23.033Z,17.57
2017-09-22T12:15:51.526Z,17.58
2017-09-22T12:18:20.100Z,17.76
2017-09-22T12:20:48.523Z,17.96
2017-09-22T12:23:16.960Z,17.83
2017-09-22T12:25:45.443Z,17.98
2017-09-22T12:28:13.926Z,17.89
2017-09-22T12:30:42.367Z,17.84
2017-09-22T12:33:11.559Z,17.77
2017-09-22T12:35:40.770Z,17.62
2017-09-22T12:38:09.958Z,17.97
2017-09-22T12:40:39.175Z,18.15
2017-09-22T12:43:07.669Z,18.04
2017-09-22T12:45:36.111Z,18.40
2017-09-22T12:48:05.303Z,18.40
2017-09-22T12:50:33.744Z,18.54
2017-09-22T12:53:02.168Z,18.93
2017-09-22T12:55:31.391Z,19.21
2017-09-22T12:58:00.607Z,19.06
2017-09-22T13:00:29.047Z,19.04
2017-09-22T13:02:57.468Z,18.80
2017-09-22T13:05:25.911Z,18.97
2017-09-22T13:07:55.104Z,18.94
2017-09-22T13:10:23.553Z,18.74
2017-09-22T13:12:51.980Z,18.26
2017-09-22T13:15:21.211Z,18.09
2017-09-22T13:17:50.099Z,18.06
2017-09-22T13:20:18.583Z,17.78
2017-09-22T13:22:47.068Z,17.77
2017-09-22T13:25:15.493Z,17.89
2017-09-22T13:27:43.935Z,17.71
2017-09-22T13:30:12.355Z,17.84
2017-09-22T13:32:40.796Z,17.89
2017-09-22T13:35:09.271Z,17.86
2017-09-22T13:37:37.715Z,18.05
2017-09-22T13:40:06.150Z,18.17
2017-09-22T13:42:34.595Z,18.25
2017-09-22T13:45:03.784Z,18.32
2017-09-22T13:47:33.010Z,18.58
2017-09-22T13:50:01.500Z,18.63
2017-09-22T13:52:29.939Z,18.79
2017-09-22T13:54:59.727Z,18.80
2017-09-22T13:57:28.269Z,18.70
2017-09-22T13:59:56.692Z,18.55
2017-09-22T14:02:25.231Z,18.47
2017-09-22T14:04:53.651Z,18.34
2017-09-22T14:07:22.217Z,18.25
2017-09-22T14:09:50.689Z,18.25
2017-09-22T14:12:19.159Z,18.27
2017-09-22T14:14:47.647Z,18.25
2017-09-22T14:17:16.123Z,18.11
2017-09-22T14:19:44.572Z,18.23
2017-09-22T14:22:13.766Z,18.07
2017-09-22T14:24:42.206Z,17.97
2017-09-22T14:27:10.674Z,17.97
2017-09-22T14:29:39.151Z,17.98
2017-09-22T14:32:07.575Z,17.92
2017-09-22T14:34:36.020Z,17.89
2017-09-22T14:37:04.439Z,17.87
2017-09-22T14:39:32.879Z,17.93
2017-09-22T14:42:01.302Z,17.91
2017-09-22T14:44:29.841Z,18.05
2017-09-22T14:46:58.269Z,17.97
2017-09-22T14:49:26.715Z,18.08
2017-09-22T14:51:55.139Z,18.34
2017-09-22T14:54:25.187Z,18.43
2017-09-22T14:56:54.371Z,18.17
2017-09-22T14:59:23.599Z,18.05
2017-09-22T15:01:52.027Z,17.85
2017-09-22T15:04:20.558Z,17.76
2017-09-22T15:06:48.999Z,17.75
2017-09-22T15:09:17.423Z,17.81
2017-09-22T15:11:45.907Z,17.78
2017-09-22T15:14:14.326Z,17.72
2017-09-22T15:16:42.874Z,17.85
2017-09-22T15:19:11.290Z,17.90
2017-09-22T15:21:39.741Z,17.71
2017-09-22T15:24:08.168Z,17.86
2017-09-22T15:26:36.695Z,17.89
2017-09-22T15:29:05.110Z,17.81
2017-09-22T15:31:33.655Z,17.76
2017-09-22T15:34:02.142Z,17.65
2017-09-22T15:36:30.591Z,17.65
2017-09-22T15:38:59.783Z,17.63
2017-09-22T15:41:29.119Z,17.66
2017-09-22T15:43:57.607Z,17.68
2017-09-22T15:46:26.075Z,17.54
2017-09-22T15:48:55.264Z,17.35
2017-09-22T15:51:24.475Z,17.42
2017-09-22T15:53:52.971Z,17.32
2017-09-22T15:56:21.444Z,17.32
2017-09-22T15:58:49.927Z,17.34
2017-09-22T16:01:18.416Z,17.24
2017-09-22T16:03:46.897Z,17.19
2017-09-22T16:06:15.380Z,17.18
2017-09-22T16:08:43.823Z,17.20
2017-09-22T16:11:12.339Z,17.11
2017-09-22T16:13:40.783Z,17.06
2017-09-22T16:16:09.199Z,17.08
2017-09-22T16:18:37.688Z,16.96
2017-09-22T16:21:06.163Z,16.92
2017-09-22T16:23:34.607Z,16.84
2017-09-22T16:26:03.047Z,16.76
2017-09-22T16:28:31.490Z,16.68
2017-09-22T16:31:00.713Z,16.60
2017-09-22T16:33:29.155Z,16.54
2017-09-22T16:35:57.671Z,16.55
2017-09-22T16:38:26.115Z,16.50
2017-09-22T16:40:54.640Z,16.50
2017-09-22T16:43:23.092Z,16.41
2017-09-22T16:45:52.282Z,16.35
2017-09-22T16:48:20.736Z,16.26
2017-09-22T16:50:49.199Z,16.22
2017-09-22T16:53:17.656Z,16.14
2017-09-22T16:55:46.083Z,16.00
2017-09-22T16:58:14.627Z,15.88
2017-09-22T17:00:43.055Z,15.87
2017-09-22T17:03:11.591Z,15.79
2017-09-22T17:05:40.016Z,15.67
2017-09-22T17:08:08.564Z,15.60
2017-09-22T17:10:37.028Z,15.54
2017-09-22T17:13:05.539Z,15.46
2017-09-22T17:15:34.017Z,15.43
2017-09-22T17:18:02.439Z,15.37
2017-09-22T17:20:30.987Z,15.26
2017-09-22T17:22:59.416Z,15.18
2017-09-22T17:25:28.644Z,14.98
2017-09-22T17:27:57.067Z,14.91
2017-09-22T17:30:25.603Z,14.88
2017-09-22T17:32:54.023Z,14.87
2017-09-22T17:35:22.472Z,14.79
2017-09-22T17:37:50.955Z,14.67
2017-09-22T17:40:19.430Z,14.57
2017-09-22T17:42:47.859Z,14.46
2017-09-22T17:45:16.305Z,14.44
2017-09-22T17:47:44.776Z,14.39
2017-09-22T17:50:13.215Z,14.25
2017-09-22T17:52:41.639Z,14.30
2017-09-22T17:55:10.081Z,14.19
2017-09-22T17:57:38.605Z,14.16
2017-09-22T18:00:07.047Z,14.08
2017-09-22T18:02:35.470Z,13.94
2017-09-22T18:05:03.911Z,13.93
2017-09-22T18:07:32.428Z,13.86
2017-09-22T18:10:00.916Z,13.89
2017-09-22T18:12:29.344Z,13.77
2017-09-22T18:14:57.811Z,13.77
2017-09-22T18:17:26.235Z,13.71
2017-09-22T18:19:55.454Z,13.69
2017-09-22T18:22:23.898Z,13.63
2017-09-22T18:24:52.419Z,13.48
2017-09-22T18:27:20.867Z,13.42
2017-09-22T18:29:50.099Z,13.39
2017-09-22T18:32:18.552Z,13.38
2017-09-22T18:34:47.751Z,13.27
2017-09-22T18:37:17.079Z,13.17
2017-09-22T18:39:45.567Z,13.08
2017-09-22T18:42:14.018Z,13.03
2017-09-22T18:44:43.211Z,12.92
2017-09-22T18:47:12.428Z,12.90
2017-09-22T18:49:41.619Z,12.91
2017-09-22T18:52:10.837Z,12.94
2017-09-22T18:54:39.263Z,12.84
2017-09-22T18:57:07.713Z,12.77
2017-09-22T18:59:36.153Z,12.70
2017-09-22T19:02:05.371Z,12.66
2017-09-22T19:04:33.863Z,12.62
2017-09-22T19:07:02.316Z,12.56
2017-09-22T19:09:31.542Z,12.48
2017-09-22T19:11:59.999Z,12.47
2017-09-22T19:14:29.195Z,12.41
2017-09-22T19:16:58.423Z,12.32
2017-09-22T19:19:26.852Z,12.23
2017-09-22T19:21:55.334Z,12.13
2017-09-22T19:24:23.871Z,12.05
2017-09-22T19:26:52.299Z,12.02
2017-09-22T19:29:20.748Z,11.98
2017-09-22T19:31:49.176Z,11.91
2017-09-22T19:34:17.613Z,11.90
2017-09-22T19:36:46.081Z,11.93
2017-09-22T19:39:14.570Z,11.85
2017-09-22T19:41:43.043Z,11.85
2017-09-22T19:44:11.491Z,11.86
2017-09-22T19:46:40.686Z,11.83
2017-09-22T19:49:09.911Z,11.77
2017-09-22T19:51:38.339Z,11.73
2017-09-22T19:54:06.883Z,11.67
2017-09-22T19:56:35.311Z,11.62
2017-09-22T19:59:03.768Z,11.61
2017-09-22T20:01:32.228Z,11.58
2017-09-22T20:04:00.712Z,11.52
2017-09-22T20:06:29.143Z,11.45
2017-09-22T20:08:57.595Z,11.44
2017-09-22T20:11:26.019Z,11.46
2017-09-22T20:13:55.251Z,11.47
2017-09-22T20:16:23.684Z,11.44
2017-09-22T20:18:52.132Z,11.46
2017-09-22T20:21:20.599Z,11.45
2017-09-22T20:23:49.079Z,11.42
2017-09-22T20:26:17.508Z,11.36
2017-09-22T20:28:46.045Z,11.30
2017-09-22T20:31:14.527Z,11.30
2017-09-22T20:33:42.975Z,11.30
2017-09-22T20:36:12.204Z,11.34
2017-09-22T20:38:40.747Z,11.28
2017-09-22T20:41:09.994Z,11.27
2017-09-22T20:43:38.424Z,11.28
2017-09-22T20:46:06.871Z,11.23
2017-09-22T20:48:35.331Z,11.22
2017-09-22T20:51:03.783Z,11.25
2017-09-22T20:53:32.978Z,11.13
2017-09-22T20:56:02.195Z,11.11
2017-09-22T20:58:31.391Z,10.98
2017-09-22T21:01:00.598Z,10.92
2017-09-22T21:03:29.090Z,10.91
2017-09-22T21:05:57.572Z,10.87
2017-09-22T21:08:25.999Z,10.91
2017-09-22T21:10:54.450Z,10.97
2017-09-22T21:13:22.874Z,10.94
2017-09-22T21:15:51.395Z,10.90
2017-09-22T21:18:19.823Z,10.85
2017-09-22T21:20:48.273Z,10.84
2017-09-22T21:23:16.699Z,10.86
2017-09-22T21:25:45.915Z,10.89
2017-09-22T21:28:15.140Z,10.95
2017-09-22T21:30:43.619Z,10.86
2017-09-22T21:33:12.042Z,10.84
2017-09-22T21:35:40.583Z,10.78
2017-09-22T21:38:09.007Z,10.79
2017-09-22T21:40:37.549Z,10.68
2017-09-22T21:43:05.976Z,10.60
2017-09-22T21:45:34.431Z,10.52
2017-09-22T21:48:02.858Z,10.48
2017-09-22T21:50:32.095Z,10.49
2017-09-22T21:53:00.571Z,10.36
2017-09-22T21:55:29.024Z,10.30
2017-09-22T21:57:58.224Z,10.22
2017-09-22T22:00:27.583Z,10.18
2017-09-22T22:03:01.466Z,10.13
2017-09-22T22:05:34.968Z,10.14
2017-09-22T22:08:03.392Z,10.12
2017-09-22T22:10:31.818Z,10.05
2017-09-22T22:13:00.267Z,10.04
2017-09-22T22:15:28.695Z,10.07
2017-09-22T22:17:57.172Z,10.06
2017-09-22T22:20:25.655Z,10.03
2017-09-22T22:22:54.102Z,10.02
2017-09-22T22:25:23.339Z,10.00
2017-09-22T22:27:51.787Z,9.95
2017-09-22T22:30:20.980Z,9.88
2017-09-22T22:32:50.195Z,9.91
2017-09-22T22:35:19.388Z,9.99
2017-09-22T22:37:48.603Z,10.00
2017-09-22T22:40:17.091Z,9.99
2017-09-22T22:42:45.544Z,9.95
2017-09-22T22:45:14.739Z,9.94
2017-09-22T22:47:44.071Z,9.87
2017-09-22T22:50:12.500Z,9.73
2017-09-22T22:52:41.055Z,9.55
2017-09-22T22:55:09.505Z,9.46
2017-09-22T22:57:38.723Z,9.40
2017-09-22T23:00:07.168Z,9.38
2017-09-22T23:02:36.355Z,9.42
2017-09-22T23:05:04.809Z,9.36
2017-09-22T23:07:33.234Z,9.30
2017-09-22T23:10:02.442Z,9.27
2017-09-22T23:12:31.655Z,9.25
2017-09-22T23:15:00.104Z,9.23
2017-09-22T23:17:28.624Z,9.26
2017-09-22T23:19:57.071Z,9.28
2017-09-22T23:22:26.267Z,9.24
2017-09-22T23:24:54.714Z,9.21
2017-09-22T23:27:23.135Z,9.25
2017-09-22T23:29:52.355Z,9.28
2017-09-22T23:32:20.787Z,9.19
2017-09-22T23:34:49.227Z,9.17
2017-09-22T23:37:17.703Z,9.16
2017-09-22T23:39:46.151Z,9.19
2017-09-22T23:42:14.581Z,9.18
2017-09-22T23:44:43.035Z,9.16
2017-09-22T23:47:12.222Z,9.03
2017-09-22T23:49:41.439Z,9.04
2017-09-22T23:52:10.627Z,9.07
2017-09-22T23:54:39.840Z,9.10
2017-09-22T23:57:08.327Z,9.05
2017-09-22T23:59:36.775Z,9.09
